sensor_id;sensor_type;location;lat;lon;timestamp;P1;durP1;ratioP1;P2;durP2;ratioP2
81310;SDS011;70779;52.506;5.492;2023-08-08T00:02:16;6.07;;;1.90;;
81310;SDS011;70779;52.506;5.492;2023-08-08T00:04:42;4.28;;;1.52;;
81310;SDS011;70779;52.506;5.492;2023-08-08T00:07:08;6.28;;;1.73;;
81310;SDS011;70779;52.506;5.492;2023-08-08T00:09:34;4.25;;;1.88;;
81310;SDS011;70779;52.506;5.492;2023-08-08T00:12:00;7.70;;;1.95;;
81310;SDS011;70779;52.506;5.492;2023-08-08T00:14:26;7.15;;;2.13;;
81310;SDS011;70779;52.506;5.492;2023-08-08T00:16:52;6.32;;;1.67;;
81310;SDS011;70779;52.506;5.492;2023-08-08T00:19:19;5.75;;;1.60;;
81310;SDS011;70779;52.506;5.492;2023-08-08T00:21:45;9.25;;;2.10;;
81310;SDS011;70779;52.506;5.492;2023-08-08T00:24:11;10.80;;;2.42;;
81310;SDS011;70779;52.506;5.492;2023-08-08T00:26:37;6.85;;;1.98;;
81310;SDS011;70779;52.506;5.492;2023-08-08T00:29:03;9.20;;;2.17;;
81310;SDS011;70779;52.506;5.492;2023-08-08T00:31:29;9.00;;;2.25;;
81310;SDS011;70779;52.506;5.492;2023-08-08T00:33:55;10.68;;;2.22;;
81310;SDS011;70779;52.506;5.492;2023-08-08T00:36:21;8.13;;;2.40;;
81310;SDS011;70779;52.506;5.492;2023-08-08T00:38:47;8.90;;;2.47;;
81310;SDS011;70779;52.506;5.492;2023-08-08T00:41:14;11.13;;;2.45;;
81310;SDS011;70779;52.506;5.492;2023-08-08T00:43:40;7.43;;;2.15;;
81310;SDS011;70779;52.506;5.492;2023-08-08T00:46:09;5.57;;;1.95;;
81310;SDS011;70779;52.506;5.492;2023-08-08T00:48:36;6.18;;;2.25;;
81310;SDS011;70779;52.506;5.492;2023-08-08T00:51:02;6.10;;;1.98;;
81310;SDS011;70779;52.506;5.492;2023-08-08T00:53:29;7.18;;;2.33;;
81310;SDS011;70779;52.506;5.492;2023-08-08T00:55:58;7.43;;;2.63;;
81310;SDS011;70779;52.506;5.492;2023-08-08T00:58:25;12.52;;;3.03;;
81310;SDS011;70779;52.506;5.492;2023-08-08T01:00:52;5.40;;;2.30;;
81310;SDS011;70779;52.506;5.492;2023-08-08T01:03:22;16.50;;;3.70;;
81310;SDS011;70779;52.506;5.492;2023-08-08T01:05:51;9.98;;;2.90;;
81310;SDS011;70779;52.506;5.492;2023-08-08T01:08:26;7.78;;;2.42;;
81310;SDS011;70779;52.506;5.492;2023-08-08T01:10:58;9.45;;;2.90;;
81310;SDS011;70779;52.506;5.492;2023-08-08T01:13:25;8.38;;;2.90;;
81310;SDS011;70779;52.506;5.492;2023-08-08T01:15:53;8.90;;;2.42;;
81310;SDS011;70779;52.506;5.492;2023-08-08T01:18:22;8.15;;;2.40;;
81310;SDS011;70779;52.506;5.492;2023-08-08T01:20:48;9.55;;;2.08;;
81310;SDS011;70779;52.506;5.492;2023-08-08T01:23:52;11.38;;;2.30;;
81310;SDS011;70779;52.506;5.492;2023-08-08T01:26:21;14.23;;;2.78;;
81310;SDS011;70779;52.506;5.492;2023-08-08T01:28:51;6.10;;;2.17;;
81310;SDS011;70779;52.506;5.492;2023-08-08T01:31:20;8.45;;;2.35;;
81310;SDS011;70779;52.506;5.492;2023-08-08T01:33:46;8.93;;;2.95;;
81310;SDS011;70779;52.506;5.492;2023-08-08T01:36:14;5.38;;;1.92;;
81310;SDS011;70779;52.506;5.492;2023-08-08T01:38:51;3.63;;;1.88;;
81310;SDS011;70779;52.506;5.492;2023-08-08T01:41:19;4.47;;;1.65;;
81310;SDS011;70779;52.506;5.492;2023-08-08T01:43:46;5.45;;;1.50;;
81310;SDS011;70779;52.506;5.492;2023-08-08T01:46:13;3.92;;;1.38;;
81310;SDS011;70779;52.506;5.492;2023-08-08T01:48:40;3.45;;;1.40;;
81310;SDS011;70779;52.506;5.492;2023-08-08T01:51:09;6.05;;;1.02;;
81310;SDS011;70779;52.506;5.492;2023-08-08T01:53:35;4.68;;;1.35;;
81310;SDS011;70779;52.506;5.492;2023-08-08T01:56:02;6.75;;;1.40;;
81310;SDS011;70779;52.506;5.492;2023-08-08T01:58:28;5.40;;;1.20;;
81310;SDS011;70779;52.506;5.492;2023-08-08T02:00:54;6.10;;;1.23;;
81310;SDS011;70779;52.506;5.492;2023-08-08T02:03:20;6.80;;;1.48;;
81310;SDS011;70779;52.506;5.492;2023-08-08T02:05:46;4.20;;;1.33;;
81310;SDS011;70779;52.506;5.492;2023-08-08T02:08:13;4.25;;;1.08;;
81310;SDS011;70779;52.506;5.492;2023-08-08T02:10:40;4.43;;;1.50;;
81310;SDS011;70779;52.506;5.492;2023-08-08T02:13:06;2.38;;;1.10;;
81310;SDS011;70779;52.506;5.492;2023-08-08T02:15:32;8.52;;;1.70;;
81310;SDS011;70779;52.506;5.492;2023-08-08T02:18:01;2.67;;;0.85;;
81310;SDS011;70779;52.506;5.492;2023-08-08T02:20:29;5.68;;;1.35;;
81310;SDS011;70779;52.506;5.492;2023-08-08T02:22:55;3.03;;;1.00;;
81310;SDS011;70779;52.506;5.492;2023-08-08T02:25:21;8.68;;;1.30;;
81310;SDS011;70779;52.506;5.492;2023-08-08T02:27:47;5.03;;;0.90;;
81310;SDS011;70779;52.506;5.492;2023-08-08T02:30:13;3.95;;;0.90;;
81310;SDS011;70779;52.506;5.492;2023-08-08T02:32:40;4.68;;;0.80;;
81310;SDS011;70779;52.506;5.492;2023-08-08T02:35:06;2.25;;;0.93;;
81310;SDS011;70779;52.506;5.492;2023-08-08T02:37:32;4.78;;;0.90;;
81310;SDS011;70779;52.506;5.492;2023-08-08T02:39:58;2.50;;;1.00;;
81310;SDS011;70779;52.506;5.492;2023-08-08T02:42:25;5.20;;;0.80;;
81310;SDS011;70779;52.506;5.492;2023-08-08T02:44:51;6.30;;;1.05;;
81310;SDS011;70779;52.506;5.492;2023-08-08T02:47:18;3.72;;;0.85;;
81310;SDS011;70779;52.506;5.492;2023-08-08T02:49:44;2.33;;;0.50;;
81310;SDS011;70779;52.506;5.492;2023-08-08T02:52:11;4.53;;;0.70;;
81310;SDS011;70779;52.506;5.492;2023-08-08T02:54:37;5.43;;;0.98;;
81310;SDS011;70779;52.506;5.492;2023-08-08T02:57:03;5.15;;;0.93;;
81310;SDS011;70779;52.506;5.492;2023-08-08T02:59:30;5.93;;;0.88;;
81310;SDS011;70779;52.506;5.492;2023-08-08T03:01:56;5.90;;;0.90;;
81310;SDS011;70779;52.506;5.492;2023-08-08T03:04:23;3.60;;;0.80;;
81310;SDS011;70779;52.506;5.492;2023-08-08T03:06:49;5.10;;;1.38;;
81310;SDS011;70779;52.506;5.492;2023-08-08T03:09:15;4.72;;;0.75;;
81310;SDS011;70779;52.506;5.492;2023-08-08T03:11:42;3.38;;;0.80;;
81310;SDS011;70779;52.506;5.492;2023-08-08T03:14:11;4.03;;;0.80;;
81310;SDS011;70779;52.506;5.492;2023-08-08T03:16:37;4.93;;;1.20;;
81310;SDS011;70779;52.506;5.492;2023-08-08T03:19:04;3.78;;;0.85;;
81310;SDS011;70779;52.506;5.492;2023-08-08T03:21:31;3.75;;;0.80;;
81310;SDS011;70779;52.506;5.492;2023-08-08T03:23:57;4.40;;;0.90;;
81310;SDS011;70779;52.506;5.492;2023-08-08T03:26:23;3.72;;;1.05;;
81310;SDS011;70779;52.506;5.492;2023-08-08T03:28:50;5.50;;;0.93;;
81310;SDS011;70779;52.506;5.492;2023-08-08T03:31:22;3.25;;;0.70;;
81310;SDS011;70779;52.506;5.492;2023-08-08T03:33:48;3.72;;;0.80;;
81310;SDS011;70779;52.506;5.492;2023-08-08T03:36:14;5.43;;;1.02;;
81310;SDS011;70779;52.506;5.492;2023-08-08T03:38:40;3.22;;;1.15;;
81310;SDS011;70779;52.506;5.492;2023-08-08T03:41:09;8.65;;;0.93;;
81310;SDS011;70779;52.506;5.492;2023-08-08T03:43:36;2.05;;;0.63;;
81310;SDS011;70779;52.506;5.492;2023-08-08T03:46:02;4.88;;;1.00;;
81310;SDS011;70779;52.506;5.492;2023-08-08T03:48:29;4.80;;;0.73;;
81310;SDS011;70779;52.506;5.492;2023-08-08T03:50:56;3.05;;;0.52;;
81310;SDS011;70779;52.506;5.492;2023-08-08T03:53:22;3.50;;;0.70;;
81310;SDS011;70779;52.506;5.492;2023-08-08T03:55:48;2.95;;;0.70;;
81310;SDS011;70779;52.506;5.492;2023-08-08T03:58:16;3.03;;;0.85;;
81310;SDS011;70779;52.506;5.492;2023-08-08T04:00:43;5.95;;;0.70;;
81310;SDS011;70779;52.506;5.492;2023-08-08T04:03:13;2.25;;;0.43;;
81310;SDS011;70779;52.506;5.492;2023-08-08T04:05:46;4.72;;;0.88;;
81310;SDS011;70779;52.506;5.492;2023-08-08T04:08:16;4.70;;;0.60;;
81310;SDS011;70779;52.506;5.492;2023-08-08T04:10:42;5.82;;;0.90;;
81310;SDS011;70779;52.506;5.492;2023-08-08T04:13:09;2.80;;;0.70;;
81310;SDS011;70779;52.506;5.492;2023-08-08T04:15:36;5.32;;;1.08;;
81310;SDS011;70779;52.506;5.492;2023-08-08T04:18:02;6.85;;;0.93;;
81310;SDS011;70779;52.506;5.492;2023-08-08T04:20:28;2.67;;;0.70;;
81310;SDS011;70779;52.506;5.492;2023-08-08T04:22:54;5.45;;;0.65;;
81310;SDS011;70779;52.506;5.492;2023-08-08T04:25:20;3.17;;;0.88;;
81310;SDS011;70779;52.506;5.492;2023-08-08T04:27:46;2.50;;;0.70;;
81310;SDS011;70779;52.506;5.492;2023-08-08T04:30:13;5.18;;;0.95;;
81310;SDS011;70779;52.506;5.492;2023-08-08T04:32:39;5.75;;;0.93;;
81310;SDS011;70779;52.506;5.492;2023-08-08T04:35:05;2.88;;;0.52;;
81310;SDS011;70779;52.506;5.492;2023-08-08T04:37:31;7.10;;;0.93;;
81310;SDS011;70779;52.506;5.492;2023-08-08T04:39:57;4.60;;;1.25;;
81310;SDS011;70779;52.506;5.492;2023-08-08T04:42:23;2.83;;;0.90;;
81310;SDS011;70779;52.506;5.492;2023-08-08T04:44:50;4.45;;;0.70;;
81310;SDS011;70779;52.506;5.492;2023-08-08T04:47:16;3.38;;;0.90;;
81310;SDS011;70779;52.506;5.492;2023-08-08T04:49:42;3.00;;;0.55;;
81310;SDS011;70779;52.506;5.492;2023-08-08T04:52:08;2.40;;;0.70;;
81310;SDS011;70779;52.506;5.492;2023-08-08T04:54:34;7.80;;;0.70;;
81310;SDS011;70779;52.506;5.492;2023-08-08T04:57:00;2.83;;;0.70;;
81310;SDS011;70779;52.506;5.492;2023-08-08T04:59:26;4.65;;;0.68;;
81310;SDS011;70779;52.506;5.492;2023-08-08T05:01:52;2.03;;;0.60;;
81310;SDS011;70779;52.506;5.492;2023-08-08T05:04:18;3.67;;;0.80;;
81310;SDS011;70779;52.506;5.492;2023-08-08T05:06:45;5.18;;;0.73;;
81310;SDS011;70779;52.506;5.492;2023-08-08T05:09:11;3.20;;;0.80;;
81310;SDS011;70779;52.506;5.492;2023-08-08T05:11:37;3.83;;;0.70;;
81310;SDS011;70779;52.506;5.492;2023-08-08T05:14:07;4.55;;;0.70;;
81310;SDS011;70779;52.506;5.492;2023-08-08T05:16:33;2.33;;;0.38;;
81310;SDS011;70779;52.506;5.492;2023-08-08T05:18:59;4.28;;;0.70;;
81310;SDS011;70779;52.506;5.492;2023-08-08T05:21:25;3.60;;;0.40;;
81310;SDS011;70779;52.506;5.492;2023-08-08T05:23:51;2.53;;;0.63;;
81310;SDS011;70779;52.506;5.492;2023-08-08T05:26:17;4.53;;;0.82;;
81310;SDS011;70779;52.506;5.492;2023-08-08T05:28:43;4.47;;;0.73;;
81310;SDS011;70779;52.506;5.492;2023-08-08T05:31:10;6.45;;;0.98;;
81310;SDS011;70779;52.506;5.492;2023-08-08T05:33:39;2.40;;;0.73;;
81310;SDS011;70779;52.506;5.492;2023-08-08T05:36:05;5.97;;;1.35;;
81310;SDS011;70779;52.506;5.492;2023-08-08T05:38:31;2.80;;;1.48;;
81310;SDS011;70779;52.506;5.492;2023-08-08T05:40:57;4.63;;;1.63;;
81310;SDS011;70779;52.506;5.492;2023-08-08T05:43:23;4.80;;;1.55;;
81310;SDS011;70779;52.506;5.492;2023-08-08T05:45:49;5.03;;;1.45;;
81310;SDS011;70779;52.506;5.492;2023-08-08T05:48:15;6.20;;;1.23;;
81310;SDS011;70779;52.506;5.492;2023-08-08T05:50:41;3.15;;;1.35;;
81310;SDS011;70779;52.506;5.492;2023-08-08T05:53:10;3.47;;;1.20;;
81310;SDS011;70779;52.506;5.492;2023-08-08T05:55:37;3.80;;;1.33;;
81310;SDS011;70779;52.506;5.492;2023-08-08T05:58:07;6.10;;;1.27;;
81310;SDS011;70779;52.506;5.492;2023-08-08T06:00:34;3.10;;;1.02;;
81310;SDS011;70779;52.506;5.492;2023-08-08T06:03:00;3.90;;;1.17;;
81310;SDS011;70779;52.506;5.492;2023-08-08T06:05:27;6.80;;;1.27;;
81310;SDS011;70779;52.506;5.492;2023-08-08T06:07:54;4.70;;;0.80;;
81310;SDS011;70779;52.506;5.492;2023-08-08T06:10:23;3.65;;;0.73;;
81310;SDS011;70779;52.506;5.492;2023-08-08T06:12:50;2.50;;;0.68;;
81310;SDS011;70779;52.506;5.492;2023-08-08T06:15:17;3.10;;;0.73;;
81310;SDS011;70779;52.506;5.492;2023-08-08T06:17:44;3.65;;;0.75;;
81310;SDS011;70779;52.506;5.492;2023-08-08T06:20:10;4.68;;;0.93;;
81310;SDS011;70779;52.506;5.492;2023-08-08T06:22:36;3.65;;;0.50;;
81310;SDS011;70779;52.506;5.492;2023-08-08T06:25:02;5.80;;;1.00;;
81310;SDS011;70779;52.506;5.492;2023-08-08T06:27:29;3.25;;;0.52;;
81310;SDS011;70779;52.506;5.492;2023-08-08T06:29:55;3.38;;;0.85;;
81310;SDS011;70779;52.506;5.492;2023-08-08T06:32:22;2.63;;;0.77;;
81310;SDS011;70779;52.506;5.492;2023-08-08T06:34:50;5.25;;;0.50;;
81310;SDS011;70779;52.506;5.492;2023-08-08T06:37:17;3.05;;;0.80;;
81310;SDS011;70779;52.506;5.492;2023-08-08T06:39:43;2.90;;;0.60;;
81310;SDS011;70779;52.506;5.492;2023-08-08T06:42:09;4.85;;;0.90;;
81310;SDS011;70779;52.506;5.492;2023-08-08T06:47:12;1.63;;;0.50;;
81310;SDS011;70779;52.506;5.492;2023-08-08T06:49:38;4.38;;;0.95;;
81310;SDS011;70779;52.506;5.492;2023-08-08T06:52:05;1.90;;;0.52;;
81310;SDS011;70779;52.506;5.492;2023-08-08T06:54:31;4.85;;;0.55;;
81310;SDS011;70779;52.506;5.492;2023-08-08T06:56:58;4.25;;;0.50;;
81310;SDS011;70779;52.506;5.492;2023-08-08T06:59:25;3.72;;;0.63;;
81310;SDS011;70779;52.506;5.492;2023-08-08T07:01:52;1.73;;;0.50;;
81310;SDS011;70779;52.506;5.492;2023-08-08T07:04:18;4.05;;;0.60;;
81310;SDS011;70779;52.506;5.492;2023-08-08T07:06:44;4.93;;;0.75;;
81310;SDS011;70779;52.506;5.492;2023-08-08T07:09:11;2.95;;;0.80;;
81310;SDS011;70779;52.506;5.492;2023-08-08T07:11:37;1.08;;;0.40;;
81310;SDS011;70779;52.506;5.492;2023-08-08T07:14:03;2.15;;;0.50;;
81310;SDS011;70779;52.506;5.492;2023-08-08T07:16:30;4.55;;;0.40;;
81310;SDS011;70779;52.506;5.492;2023-08-08T07:18:56;5.85;;;0.88;;
81310;SDS011;70779;52.506;5.492;2023-08-08T07:21:22;1.42;;;0.38;;
81310;SDS011;70779;52.506;5.492;2023-08-08T07:23:48;1.30;;;0.38;;
81310;SDS011;70779;52.506;5.492;2023-08-08T07:26:14;3.67;;;0.57;;
81310;SDS011;70779;52.506;5.492;2023-08-08T07:28:40;1.95;;;0.52;;
81310;SDS011;70779;52.506;5.492;2023-08-08T07:31:06;2.75;;;0.50;;
81310;SDS011;70779;52.506;5.492;2023-08-08T07:33:32;3.65;;;0.40;;
81310;SDS011;70779;52.506;5.492;2023-08-08T07:35:59;5.20;;;0.65;;
81310;SDS011;70779;52.506;5.492;2023-08-08T07:38:25;3.65;;;0.40;;
81310;SDS011;70779;52.506;5.492;2023-08-08T07:40:51;4.32;;;0.60;;
81310;SDS011;70779;52.506;5.492;2023-08-08T07:43:17;3.28;;;0.38;;
81310;SDS011;70779;52.506;5.492;2023-08-08T07:45:43;3.55;;;0.50;;
81310;SDS011;70779;52.506;5.492;2023-08-08T07:48:09;1.42;;;0.20;;
81310;SDS011;70779;52.506;5.492;2023-08-08T07:50:35;1.70;;;0.40;;
81310;SDS011;70779;52.506;5.492;2023-08-08T07:53:01;3.35;;;0.47;;
81310;SDS011;70779;52.506;5.492;2023-08-08T07:55:28;2.25;;;0.50;;
81310;SDS011;70779;52.506;5.492;2023-08-08T07:57:54;2.70;;;0.70;;
81310;SDS011;70779;52.506;5.492;2023-08-08T08:00:20;2.05;;;0.45;;
81310;SDS011;70779;52.506;5.492;2023-08-08T08:02:47;3.00;;;0.40;;
81310;SDS011;70779;52.506;5.492;2023-08-08T08:05:13;2.28;;;0.45;;
81310;SDS011;70779;52.506;5.492;2023-08-08T08:07:40;3.60;;;0.73;;
81310;SDS011;70779;52.506;5.492;2023-08-08T08:10:07;4.93;;;0.60;;
81310;SDS011;70779;52.506;5.492;2023-08-08T08:12:35;3.10;;;0.40;;
81310;SDS011;70779;52.506;5.492;2023-08-08T08:15:02;2.45;;;0.40;;
81310;SDS011;70779;52.506;5.492;2023-08-08T08:17:29;1.75;;;0.50;;
81310;SDS011;70779;52.506;5.492;2023-08-08T08:19:55;2.53;;;0.50;;
81310;SDS011;70779;52.506;5.492;2023-08-08T08:22:22;3.33;;;0.93;;
81310;SDS011;70779;52.506;5.492;2023-08-08T08:24:48;2.60;;;0.43;;
81310;SDS011;70779;52.506;5.492;2023-08-08T08:27:14;4.07;;;0.63;;
81310;SDS011;70779;52.506;5.492;2023-08-08T08:29:40;2.47;;;0.60;;
81310;SDS011;70779;52.506;5.492;2023-08-08T08:32:06;0.85;;;0.32;;
81310;SDS011;70779;52.506;5.492;2023-08-08T08:34:33;4.82;;;0.43;;
81310;SDS011;70779;52.506;5.492;2023-08-08T08:37:00;3.42;;;0.70;;
81310;SDS011;70779;52.506;5.492;2023-08-08T08:39:27;2.40;;;0.57;;
81310;SDS011;70779;52.506;5.492;2023-08-08T08:41:54;3.20;;;0.80;;
81310;SDS011;70779;52.506;5.492;2023-08-08T08:44:27;1.88;;;0.70;;
81310;SDS011;70779;52.506;5.492;2023-08-08T08:47:02;3.45;;;0.73;;
81310;SDS011;70779;52.506;5.492;2023-08-08T08:51:59;3.10;;;0.47;;
81310;SDS011;70779;52.506;5.492;2023-08-08T08:54:31;2.67;;;0.47;;
81310;SDS011;70779;52.506;5.492;2023-08-08T08:56:57;5.10;;;0.82;;
81310;SDS011;70779;52.506;5.492;2023-08-08T08:59:24;2.47;;;0.60;;
81310;SDS011;70779;52.506;5.492;2023-08-08T09:01:51;3.97;;;0.63;;
81310;SDS011;70779;52.506;5.492;2023-08-08T09:04:19;5.50;;;0.60;;
81310;SDS011;70779;52.506;5.492;2023-08-08T09:06:46;2.50;;;0.63;;
81310;SDS011;70779;52.506;5.492;2023-08-08T09:09:13;3.38;;;0.73;;
81310;SDS011;70779;52.506;5.492;2023-08-08T09:11:45;2.35;;;0.63;;
81310;SDS011;70779;52.506;5.492;2023-08-08T09:14:20;1.63;;;0.43;;
81310;SDS011;70779;52.506;5.492;2023-08-08T09:16:47;3.15;;;0.52;;
81310;SDS011;70779;52.506;5.492;2023-08-08T09:19:14;1.98;;;0.43;;
81310;SDS011;70779;52.506;5.492;2023-08-08T09:21:43;3.30;;;0.50;;
81310;SDS011;70779;52.506;5.492;2023-08-08T09:24:09;0.90;;;0.40;;
81310;SDS011;70779;52.506;5.492;2023-08-08T09:26:35;1.27;;;0.60;;
81310;SDS011;70779;52.506;5.492;2023-08-08T09:29:02;2.58;;;0.60;;
81310;SDS011;70779;52.506;5.492;2023-08-08T09:31:29;2.42;;;0.50;;
81310;SDS011;70779;52.506;5.492;2023-08-08T09:33:56;2.30;;;0.60;;
81310;SDS011;70779;52.506;5.492;2023-08-08T09:36:24;1.52;;;0.52;;
81310;SDS011;70779;52.506;5.492;2023-08-08T09:38:51;2.10;;;0.52;;
81310;SDS011;70779;52.506;5.492;2023-08-08T09:41:20;4.90;;;0.52;;
81310;SDS011;70779;52.506;5.492;2023-08-08T09:43:47;4.30;;;0.63;;
81310;SDS011;70779;52.506;5.492;2023-08-08T09:46:14;2.78;;;0.70;;
81310;SDS011;70779;52.506;5.492;2023-08-08T09:48:41;3.42;;;0.65;;
81310;SDS011;70779;52.506;5.492;2023-08-08T09:51:09;2.35;;;0.60;;
81310;SDS011;70779;52.506;5.492;2023-08-08T09:53:35;2.42;;;0.52;;
81310;SDS011;70779;52.506;5.492;2023-08-08T09:56:05;4.70;;;0.57;;
81310;SDS011;70779;52.506;5.492;2023-08-08T09:58:32;5.72;;;0.70;;
81310;SDS011;70779;52.506;5.492;2023-08-08T10:00:58;1.88;;;0.43;;
81310;SDS011;70779;52.506;5.492;2023-08-08T10:03:25;4.72;;;0.60;;
81310;SDS011;70779;52.506;5.492;2023-08-08T10:05:52;4.65;;;0.68;;
81310;SDS011;70779;52.506;5.492;2023-08-08T10:08:18;6.43;;;0.52;;
81310;SDS011;70779;52.506;5.492;2023-08-08T10:10:46;1.77;;;0.32;;
81310;SDS011;70779;52.506;5.492;2023-08-08T10:13:23;1.95;;;0.50;;
81310;SDS011;70779;52.506;5.492;2023-08-08T10:15:50;2.03;;;0.40;;
81310;SDS011;70779;52.506;5.492;2023-08-08T10:18:17;2.70;;;0.75;;
81310;SDS011;70779;52.506;5.492;2023-08-08T10:20:46;2.40;;;0.63;;
81310;SDS011;70779;52.506;5.492;2023-08-08T10:23:16;1.27;;;0.73;;
81310;SDS011;70779;52.506;5.492;2023-08-08T10:25:44;1.50;;;0.55;;
81310;SDS011;70779;52.506;5.492;2023-08-08T10:28:14;2.60;;;0.55;;
81310;SDS011;70779;52.506;5.492;2023-08-08T10:30:44;3.13;;;0.77;;
81310;SDS011;70779;52.506;5.492;2023-08-08T10:33:21;2.70;;;0.60;;
81310;SDS011;70779;52.506;5.492;2023-08-08T10:38:37;2.38;;;0.63;;
81310;SDS011;70779;52.506;5.492;2023-08-08T10:41:05;2.85;;;0.70;;
81310;SDS011;70779;52.506;5.492;2023-08-08T10:43:50;2.63;;;0.52;;
81310;SDS011;70779;52.506;5.492;2023-08-08T10:46:27;2.70;;;0.70;;
81310;SDS011;70779;52.506;5.492;2023-08-08T10:51:47;2.13;;;0.60;;
81310;SDS011;70779;52.506;5.492;2023-08-08T10:56:40;2.33;;;0.65;;
81310;SDS011;70779;52.506;5.492;2023-08-08T10:59:16;3.47;;;0.82;;
81310;SDS011;70779;52.506;5.492;2023-08-08T11:01:46;3.28;;;0.55;;
81310;SDS011;70779;52.506;5.492;2023-08-08T11:04:13;3.78;;;0.73;;
81310;SDS011;70779;52.506;5.492;2023-08-08T11:06:41;2.75;;;0.90;;
81310;SDS011;70779;52.506;5.492;2023-08-08T11:09:07;3.20;;;0.70;;
81310;SDS011;70779;52.506;5.492;2023-08-08T11:11:37;3.95;;;0.77;;
81310;SDS011;70779;52.506;5.492;2023-08-08T11:16:45;2.35;;;0.63;;
81310;SDS011;70779;52.506;5.492;2023-08-08T11:19:13;2.10;;;0.60;;
81310;SDS011;70779;52.506;5.492;2023-08-08T11:21:43;3.60;;;0.63;;
81310;SDS011;70779;52.506;5.492;2023-08-08T11:24:10;3.83;;;0.80;;
81310;SDS011;70779;52.506;5.492;2023-08-08T11:26:41;2.92;;;0.73;;
81310;SDS011;70779;52.506;5.492;2023-08-08T11:29:11;1.55;;;0.75;;
81310;SDS011;70779;52.506;5.492;2023-08-08T11:31:37;3.50;;;0.43;;
81310;SDS011;70779;52.506;5.492;2023-08-08T11:34:04;3.80;;;0.85;;
81310;SDS011;70779;52.506;5.492;2023-08-08T11:36:33;3.25;;;0.73;;
81310;SDS011;70779;52.506;5.492;2023-08-08T11:39:04;3.33;;;0.57;;
81310;SDS011;70779;52.506;5.492;2023-08-08T11:41:34;4.25;;;1.05;;
81310;SDS011;70779;52.506;5.492;2023-08-08T11:44:04;2.20;;;0.80;;
81310;SDS011;70779;52.506;5.492;2023-08-08T11:46:31;3.13;;;0.73;;
81310;SDS011;70779;52.506;5.492;2023-08-08T11:49:04;2.72;;;0.45;;
81310;SDS011;70779;52.506;5.492;2023-08-08T11:51:32;2.78;;;0.60;;
81310;SDS011;70779;52.506;5.492;2023-08-08T11:54:00;1.08;;;0.50;;
81310;SDS011;70779;52.506;5.492;2023-08-08T11:56:28;0.82;;;0.63;;
81310;SDS011;70779;52.506;5.492;2023-08-08T11:58:54;1.58;;;0.70;;
81310;SDS011;70779;52.506;5.492;2023-08-08T12:01:22;3.85;;;0.80;;
81310;SDS011;70779;52.506;5.492;2023-08-08T12:03:48;5.90;;;0.70;;
81310;SDS011;70779;52.506;5.492;2023-08-08T12:06:15;3.08;;;1.02;;
81310;SDS011;70779;52.506;5.492;2023-08-08T12:08:42;2.67;;;0.73;;
81310;SDS011;70779;52.506;5.492;2023-08-08T12:11:09;2.35;;;0.60;;
81310;SDS011;70779;52.506;5.492;2023-08-08T12:13:37;2.33;;;0.88;;
81310;SDS011;70779;52.506;5.492;2023-08-08T12:16:05;2.88;;;0.65;;
81310;SDS011;70779;52.506;5.492;2023-08-08T12:18:32;2.05;;;0.70;;
81310;SDS011;70779;52.506;5.492;2023-08-08T12:20:58;3.75;;;0.80;;
81310;SDS011;70779;52.506;5.492;2023-08-08T12:23:26;3.65;;;0.80;;
81310;SDS011;70779;52.506;5.492;2023-08-08T12:25:53;1.40;;;0.50;;
81310;SDS011;70779;52.506;5.492;2023-08-08T12:28:19;3.53;;;0.70;;
81310;SDS011;70779;52.506;5.492;2023-08-08T12:30:45;2.67;;;0.65;;
81310;SDS011;70779;52.506;5.492;2023-08-08T12:33:12;12.88;;;1.00;;
81310;SDS011;70779;52.506;5.492;2023-08-08T12:35:38;3.47;;;0.60;;
81310;SDS011;70779;52.506;5.492;2023-08-08T12:38:04;4.88;;;0.82;;
81310;SDS011;70779;52.506;5.492;2023-08-08T12:40:30;1.65;;;0.43;;
81310;SDS011;70779;52.506;5.492;2023-08-08T12:42:56;4.78;;;0.63;;
81310;SDS011;70779;52.506;5.492;2023-08-08T12:45:22;3.53;;;0.70;;
81310;SDS011;70779;52.506;5.492;2023-08-08T12:47:49;0.70;;;0.50;;
81310;SDS011;70779;52.506;5.492;2023-08-08T12:50:15;3.50;;;0.80;;
81310;SDS011;70779;52.506;5.492;2023-08-08T12:52:41;2.80;;;0.45;;
81310;SDS011;70779;52.506;5.492;2023-08-08T12:55:07;3.28;;;0.60;;
81310;SDS011;70779;52.506;5.492;2023-08-08T12:57:34;2.90;;;0.45;;
81310;SDS011;70779;52.506;5.492;2023-08-08T13:00:00;2.53;;;0.60;;
81310;SDS011;70779;52.506;5.492;2023-08-08T13:02:27;1.73;;;0.60;;
81310;SDS011;70779;52.506;5.492;2023-08-08T13:04:53;5.00;;;1.10;;
81310;SDS011;70779;52.506;5.492;2023-08-08T13:07:19;1.10;;;0.52;;
81310;SDS011;70779;52.506;5.492;2023-08-08T13:09:45;4.40;;;0.70;;
81310;SDS011;70779;52.506;5.492;2023-08-08T13:12:11;1.35;;;0.45;;
81310;SDS011;70779;52.506;5.492;2023-08-08T13:14:38;4.65;;;1.17;;
81310;SDS011;70779;52.506;5.492;2023-08-08T13:17:04;4.25;;;0.55;;
81310;SDS011;70779;52.506;5.492;2023-08-08T13:19:30;2.10;;;0.60;;
81310;SDS011;70779;52.506;5.492;2023-08-08T13:21:56;4.45;;;0.90;;
81310;SDS011;70779;52.506;5.492;2023-08-08T13:24:22;5.22;;;0.82;;
81310;SDS011;70779;52.506;5.492;2023-08-08T13:26:49;3.55;;;0.80;;
81310;SDS011;70779;52.506;5.492;2023-08-08T13:29:15;3.50;;;0.70;;
81310;SDS011;70779;52.506;5.492;2023-08-08T13:31:42;2.03;;;0.50;;
81310;SDS011;70779;52.506;5.492;2023-08-08T13:34:09;0.85;;;0.52;;
81310;SDS011;70779;52.506;5.492;2023-08-08T13:36:36;1.60;;;0.90;;
81310;SDS011;70779;52.506;5.492;2023-08-08T13:39:02;3.67;;;0.47;;
81310;SDS011;70779;52.506;5.492;2023-08-08T13:41:29;4.00;;;0.80;;
81310;SDS011;70779;52.506;5.492;2023-08-08T13:43:56;4.25;;;0.63;;
81310;SDS011;70779;52.506;5.492;2023-08-08T13:46:22;1.63;;;0.73;;
81310;SDS011;70779;52.506;5.492;2023-08-08T13:48:48;4.90;;;1.10;;
81310;SDS011;70779;52.506;5.492;2023-08-08T13:51:14;1.27;;;0.50;;
81310;SDS011;70779;52.506;5.492;2023-08-08T13:53:40;1.15;;;0.55;;
81310;SDS011;70779;52.506;5.492;2023-08-08T13:56:06;3.10;;;0.70;;
81310;SDS011;70779;52.506;5.492;2023-08-08T13:58:33;5.97;;;0.80;;
81310;SDS011;70779;52.506;5.492;2023-08-08T14:01:00;3.03;;;0.85;;
81310;SDS011;70779;52.506;5.492;2023-08-08T14:03:26;2.83;;;0.82;;
81310;SDS011;70779;52.506;5.492;2023-08-08T14:05:52;2.15;;;0.73;;
81310;SDS011;70779;52.506;5.492;2023-08-08T14:08:18;3.38;;;0.70;;
81310;SDS011;70779;52.506;5.492;2023-08-08T14:10:46;5.43;;;0.73;;
81310;SDS011;70779;52.506;5.492;2023-08-08T14:13:12;1.73;;;0.70;;
81310;SDS011;70779;52.506;5.492;2023-08-08T14:15:38;2.75;;;0.80;;
81310;SDS011;70779;52.506;5.492;2023-08-08T14:18:07;2.55;;;0.55;;
81310;SDS011;70779;52.506;5.492;2023-08-08T14:20:33;2.75;;;0.77;;
81310;SDS011;70779;52.506;5.492;2023-08-08T14:22:59;2.78;;;0.75;;
81310;SDS011;70779;52.506;5.492;2023-08-08T14:25:25;4.13;;;0.73;;
81310;SDS011;70779;52.506;5.492;2023-08-08T14:27:51;1.70;;;0.43;;
81310;SDS011;70779;52.506;5.492;2023-08-08T14:30:17;3.50;;;0.82;;
81310;SDS011;70779;52.506;5.492;2023-08-08T14:32:43;2.88;;;0.77;;
81310;SDS011;70779;52.506;5.492;2023-08-08T14:35:09;3.25;;;0.52;;
81310;SDS011;70779;52.506;5.492;2023-08-08T14:37:36;3.80;;;0.75;;
81310;SDS011;70779;52.506;5.492;2023-08-08T14:40:02;5.00;;;0.70;;
81310;SDS011;70779;52.506;5.492;2023-08-08T14:42:28;2.70;;;0.60;;
81310;SDS011;70779;52.506;5.492;2023-08-08T14:44:54;1.98;;;0.73;;
81310;SDS011;70779;52.506;5.492;2023-08-08T14:47:20;2.42;;;0.60;;
81310;SDS011;70779;52.506;5.492;2023-08-08T14:49:47;3.10;;;0.68;;
81310;SDS011;70779;52.506;5.492;2023-08-08T14:52:15;2.67;;;0.60;;
81310;SDS011;70779;52.506;5.492;2023-08-08T14:54:41;2.95;;;0.93;;
81310;SDS011;70779;52.506;5.492;2023-08-08T14:57:08;4.00;;;0.80;;
81310;SDS011;70779;52.506;5.492;2023-08-08T14:59:34;1.90;;;0.55;;
81310;SDS011;70779;52.506;5.492;2023-08-08T15:02:00;1.67;;;0.50;;
81310;SDS011;70779;52.506;5.492;2023-08-08T15:04:26;3.80;;;0.63;;